Time;durP1;ratioP1;P1;durP2;ratioP2;P2;SDS_P1;SDS_P2;PMS_P1;PMS_P2;Temp;Humidity;BMP_temperature;BMP_pressure;BME280_temperature;BME280_humidity;BME280_pressure;Samples;Min_cycle;Max_cycle;Signal;HPM_P1;HPM_P2
2022/01/03 00:01:40;;;;;;;11.35;2.00;;;8.10;99.90;;;;;;5103928;28;20044;-65
2022/01/03 00:04:09;;;;;;;9.25;2.15;;;8.10;99.90;;;;;;5099433;28;20082;-65
2022/01/03 00:06:35;;;;;;;12.60;2.30;;;8.20;99.90;;;;;;5098803;28;20043;-66
2022/01/03 00:09:03;;;;;;;7.78;1.75;;;8.20;99.90;;;;;;5099266;28;20574;-66
2022/01/03 00:11:29;;;;;;;6.68;1.85;;;8.30;99.90;;;;;;5110643;28;20493;-65
2022/01/03 00:13:54;;;;;;;8.65;1.70;;;8.40;99.90;;;;;;5111307;28;20039;-65
2022/01/03 00:16:22;;;;;;;10.55;2.30;;;8.40;99.90;;;;;;5103242;28;20051;-65
2022/01/03 00:18:49;;;;;;;15.95;2.80;;;8.40;99.90;;;;;;5088548;28;20044;-66
2022/01/03 00:21:17;;;;;;;9.65;2.88;;;8.40;99.90;;;;;;5104209;28;20047;-66
2022/01/03 00:23:52;;;;;;;10.13;2.08;;;8.50;99.90;;;;;;5097437;28;20048;-65
2022/01/03 00:26:24;;;;;;;10.05;2.35;;;8.50;99.90;;;;;;5092887;28;20090;-65
2022/01/03 00:28:58;;;;;;;;;;;8.50;99.90;;;;;;5101161;28;20541;-65
2022/01/03 00:31:33;;;;;;;8.52;2.05;;;8.50;99.90;;;;;;5106799;28;19920;-66
2022/01/03 00:33:59;;;;;;;9.98;2.13;;;8.60;99.90;;;;;;5090012;28;20047;-65
2022/01/03 00:36:28;;;;;;;10.27;2.28;;;8.60;99.90;;;;;;5090611;28;20044;-66
2022/01/03 00:38:55;;;;;;;16.45;2.60;;;8.60;99.90;;;;;;5099661;28;20052;-66
2022/01/03 00:41:22;;;;;;;11.23;2.22;;;8.60;99.90;;;;;;5096865;28;20803;-66
2022/01/03 00:43:50;;;;;;;10.68;2.58;;;8.60;99.90;;;;;;5110667;28;20145;-66
2022/01/03 00:46:17;;;;;;;12.05;2.35;;;8.60;99.90;;;;;;5109423;28;20048;-66
2022/01/03 00:48:43;;;;;;;12.98;3.08;;;8.50;99.90;;;;;;5111103;28;20505;-66
2022/01/03 00:51:09;;;;;;;12.23;2.60;;;8.60;99.90;;;;;;5114758;28;20043;-66
2022/01/03 00:53:34;;;;;;;12.65;3.13;;;8.50;99.90;;;;;;5113574;28;20375;-66
2022/01/03 00:56:04;;;;;;;19.05;4.72;;;8.50;99.90;;;;;;5114861;28;20405;-66
2022/01/03 00:58:45;;;;;;;15.38;3.28;;;8.70;99.90;;;;;;5114510;28;20062;-66
2022/01/03 01:01:12;;;;;;;16.40;3.35;;;8.50;99.90;;;;;;5112852;28;20055;-65
2022/01/03 01:03:40;;;;;;;17.88;3.28;;;8.50;99.90;;;;;;5112811;28;20401;-66
2022/01/03 01:06:07;;;;;;;19.55;3.53;;;8.50;99.90;;;;;;5113310;28;20043;-66
2022/01/03 01:08:35;;;;;;;19.77;3.53;;;8.50;99.90;;;;;;5113593;28;20040;-66
2022/01/03 01:11:04;;;;;;;20.42;3.28;;;8.50;99.90;;;;;;5114419;27;20513;-66
2022/01/03 01:13:30;;;;;;;14.90;2.55;;;8.50;99.90;;;;;;5112688;28;20051;-66
2022/01/03 01:15:58;;;;;;;22.10;3.63;;;8.50;99.90;;;;;;5106090;28;20092;-66
2022/01/03 01:18:24;;;;;;;17.33;3.70;;;8.50;99.90;;;;;;5104842;28;20054;-65
2022/01/03 01:20:50;;;;;;;21.50;3.35;;;8.50;99.90;;;;;;5102958;28;20441;-66
2022/01/03 01:23:16;;;;;;;15.60;3.55;;;8.50;99.90;;;;;;5111980;28;20059;-66
2022/01/03 01:28:11;;;;;;;22.42;4.15;;;8.50;99.90;;;;;;5104082;28;20048;-66
2022/01/03 01:30:41;;;;;;;17.08;3.22;;;8.50;99.90;;;;;;5102650;28;20486;-65
2022/01/03 01:33:15;;;;;;;15.98;3.95;;;8.50;99.90;;;;;;5098228;28;20046;-66
2022/01/03 01:35:50;;;;;;;22.58;4.28;;;8.60;99.90;;;;;;5115408;27;20066;-66
2022/01/03 01:38:22;;;;;;;22.27;3.88;;;8.60;99.90;;;;;;5080102;28;20047;-66
2022/01/03 01:40:53;;;;;;;13.10;3.90;;;8.60;99.90;;;;;;5112239;28;20043;-66
2022/01/03 01:43:25;;;;;;;16.67;3.80;;;8.60;99.90;;;;;;5092396;28;20055;-66
2022/01/03 01:45:51;;;;;;;21.88;4.32;;;8.60;99.90;;;;;;5091832;28;20059;-66
2022/01/03 01:48:21;;;;;;;22.90;4.80;;;8.60;99.90;;;;;;5095821;28;20497;-66
2022/01/03 01:50:50;;;;;;;17.38;3.53;;;8.60;99.90;;;;;;5091947;28;20036;-66
2022/01/03 01:53:22;;;;;;;24.70;4.47;;;8.70;99.90;;;;;;5103160;28;20570;-66
2022/01/03 01:55:50;;;;;;;19.10;4.53;;;8.70;99.90;;;;;;5094413;28;20463;-66
2022/01/03 01:58:34;;;;;;;28.73;4.43;;;8.70;99.90;;;;;;5108675;28;20075;-66
2022/01/03 02:01:06;;;;;;;22.02;3.65;;;8.80;99.90;;;;;;5094044;28;20052;-66
2022/01/03 02:03:52;;;;;;;21.48;3.35;;;8.80;99.90;;;;;;5106221;27;20165;-66
2022/01/03 02:06:20;;;;;;;20.33;4.35;;;8.80;99.90;;;;;;5111287;28;20047;-66
2022/01/03 02:08:59;;;;;;;24.98;4.75;;;8.90;99.90;;;;;;5091535;28;20039;-66
2022/01/03 02:11:52;;;;;;;23.55;4.35;;;8.90;99.90;;;;;;5101267;28;20078;-66
2022/01/03 02:14:19;;;;;;;20.48;4.05;;;8.90;99.90;;;;;;5112081;28;20468;-66
2022/01/03 02:16:45;;;;;;;24.40;3.75;;;8.90;99.90;;;;;;5111716;28;20039;-66
2022/01/03 02:19:12;;;;;;;15.77;3.15;;;8.90;99.90;;;;;;5105128;28;20051;-66
2022/01/03 02:21:37;;;;;;;21.30;3.72;;;8.90;99.90;;;;;;5104708;28;20478;-66
2022/01/03 02:24:04;;;;;;;19.83;4.50;;;8.90;99.90;;;;;;5092638;28;20055;-66
2022/01/03 02:26:30;;;;;;;17.17;3.45;;;8.90;99.90;;;;;;5108426;28;20039;-66
2022/01/03 02:28:56;;;;;;;18.85;4.07;;;8.90;99.90;;;;;;5100136;28;20052;-66
2022/01/03 02:31:23;;;;;;;20.40;4.07;;;8.80;99.90;;;;;;5103366;28;20048;-66
2022/01/03 02:33:49;;;;;;;26.63;4.40;;;8.80;99.90;;;;;;5111942;28;20050;-66
2022/01/03 02:36:17;;;;;;;16.58;4.68;;;8.80;99.90;;;;;;5111708;28;20051;-67
2022/01/03 02:38:43;;;;;;;22.80;4.18;;;8.90;99.90;;;;;;5128581;27;20375;-66
2022/01/03 02:41:08;;;;;;;18.63;4.82;;;8.80;99.90;;;;;;5093703;28;20046;-66
2022/01/03 02:43:34;;;;;;;25.77;6.15;;;8.80;99.90;;;;;;5110872;28;20044;-66
2022/01/03 02:45:59;;;;;;;22.17;4.57;;;8.80;99.90;;;;;;5110289;28;20130;-66
2022/01/03 02:48:26;;;;;;;25.35;4.75;;;8.80;99.90;;;;;;5111476;28;20128;-66
2022/01/03 02:50:52;;;;;;;18.25;4.68;;;8.80;99.90;;;;;;5106792;28;20101;-66
2022/01/03 02:53:19;;;;;;;30.85;5.15;;;8.70;99.90;;;;;;5097784;28;20057;-66
2022/01/03 02:55:45;;;;;;;24.80;4.63;;;8.70;99.90;;;;;;5104967;28;20054;-66
2022/01/03 02:58:10;;;;;;;21.75;4.40;;;8.70;99.90;;;;;;5101888;28;20051;-66
2022/01/03 03:00:48;;;;;;;27.23;5.65;;;8.80;99.90;;;;;;5099103;28;20058;-66
2022/01/03 03:03:15;;;;;;;15.27;3.83;;;8.80;99.90;;;;;;5093291;28;20048;-66
2022/01/03 03:05:41;;;;;;;29.38;6.53;;;8.80;99.90;;;;;;5090586;28;20056;-66
2022/01/03 03:08:08;;;;;;;22.05;4.70;;;8.80;99.90;;;;;;5109983;28;20440;-66
2022/01/03 03:10:33;;;;;;;24.65;5.10;;;8.70;99.90;;;;;;5110489;28;20047;-67
2022/01/03 03:12:59;;;;;;;22.10;5.03;;;8.70;99.90;;;;;;5111677;28;20089;-66
2022/01/03 03:15:25;;;;;;;22.38;4.63;;;8.60;99.90;;;;;;5109932;28;20126;-66
2022/01/03 03:17:50;;;;;;;20.70;4.45;;;8.60;99.90;;;;;;5110251;28;20052;-66
2022/01/03 03:20:18;;;;;;;30.42;5.30;;;8.60;99.90;;;;;;5111784;28;20459;-66
2022/01/03 03:22:45;;;;;;;26.30;5.47;;;8.60;99.90;;;;;;5109586;28;20397;-66
2022/01/03 03:25:23;;;;;;;22.63;4.47;;;8.50;99.90;;;;;;5110932;28;20476;-66
2022/01/03 03:27:52;;;;;;;33.22;5.32;;;8.50;99.90;;;;;;5111819;28;20150;-66
2022/01/03 03:30:21;;;;;;;22.75;4.82;;;8.50;99.90;;;;;;5111117;28;20121;-66
2022/01/03 03:32:49;;;;;;;24.27;5.28;;;8.50;99.90;;;;;;5101198;28;20430;-66
2022/01/03 03:35:16;;;;;;;26.15;4.78;;;8.50;99.90;;;;;;5098284;28;20067;-66
2022/01/03 03:37:42;;;;;;;25.73;5.35;;;8.40;99.90;;;;;;5090007;28;20142;-67
2022/01/03 03:40:08;;;;;;;29.00;4.43;;;8.40;99.90;;;;;;5105137;28;20463;-66
2022/01/03 03:42:34;;;;;;;21.02;4.30;;;8.40;99.90;;;;;;5110542;28;20054;-66
2022/01/03 03:45:01;;;;;;;25.17;4.70;;;8.40;99.90;;;;;;5111436;28;20130;-66
2022/01/03 03:47:26;;;;;;;27.90;5.22;;;8.40;99.90;;;;;;5111446;28;20098;-66
2022/01/03 03:49:52;;;;;;;24.25;3.92;;;8.30;99.90;;;;;;5110428;28;20501;-66
2022/01/03 03:52:18;;;;;;;25.75;5.25;;;8.40;99.90;;;;;;5111468;28;20044;-66
2022/01/03 03:54:43;;;;;;;22.92;5.65;;;8.40;99.90;;;;;;5110956;28;20657;-66
2022/01/03 03:57:09;;;;;;;22.70;4.32;;;8.40;99.90;;;;;;5110784;28;20047;-66
2022/01/03 03:59:35;;;;;;;30.85;6.05;;;8.30;99.90;;;;;;5109722;28;20040;-66
2022/01/03 04:02:01;;;;;;;24.92;6.10;;;8.40;99.90;;;;;;5111383;28;20040;-66
2022/01/03 04:04:27;;;;;;;26.05;6.05;;;8.30;99.90;;;;;;5109053;28;20088;-66
2022/01/03 04:06:53;;;;;;;35.90;5.65;;;8.30;99.90;;;;;;5110897;28;20115;-66
2022/01/03 04:09:19;;;;;;;39.28;5.65;;;8.30;99.90;;;;;;5109720;28;20056;-66
2022/01/03 04:11:45;;;;;;;26.15;5.18;;;8.30;99.90;;;;;;5108875;28;20055;-66
2022/01/03 04:14:10;;;;;;;22.05;4.57;;;8.30;99.90;;;;;;5110160;28;20060;-66
2022/01/03 04:16:36;;;;;;;21.80;5.47;;;8.30;99.90;;;;;;5109491;28;20053;-66
2022/01/03 04:19:04;;;;;;;26.23;6.53;;;8.40;99.90;;;;;;5110448;28;20044;-66
2022/01/03 04:21:29;;;;;;;24.27;5.30;;;8.40;99.90;;;;;;5105510;28;20051;-66
2022/01/03 04:23:55;;;;;;;38.25;6.88;;;8.40;99.90;;;;;;5100188;28;20040;-66
2022/01/03 04:26:24;;;;;;;23.55;4.38;;;8.50;99.90;;;;;;5101857;28;20051;-66
2022/01/03 04:28:50;;;;;;;28.63;5.15;;;8.50;99.90;;;;;;5093191;28;20127;-66
2022/01/03 04:31:16;;;;;;;30.77;5.68;;;8.40;99.90;;;;;;5109377;28;20126;-66
2022/01/03 04:33:45;;;;;;;28.80;5.78;;;8.50;99.90;;;;;;5112811;28;20067;-66
2022/01/03 04:36:11;;;;;;;28.70;5.40;;;8.40;99.90;;;;;;5113571;28;20051;-66
2022/01/03 04:38:37;;;;;;;19.90;5.07;;;8.40;99.90;;;;;;5113101;28;20058;-67
2022/01/03 04:41:03;;;;;;;31.88;5.75;;;8.40;99.90;;;;;;5115140;28;20044;-66
2022/01/03 04:43:29;;;;;;;31.33;5.85;;;8.30;99.90;;;;;;5115053;28;20041;-66
2022/01/03 04:45:57;;;;;;;28.40;6.13;;;8.30;99.90;;;;;;5114258;28;20071;-66
2022/01/03 04:48:23;;;;;;;42.90;5.43;;;8.30;99.90;;;;;;5104892;27;20039;-66
2022/01/03 04:50:49;;;;;;;33.42;5.45;;;8.30;99.90;;;;;;5103790;28;20055;-66
2022/01/03 04:53:16;;;;;;;22.35;5.68;;;8.30;99.90;;;;;;5094901;28;20036;-66
2022/01/03 04:55:41;;;;;;;30.63;5.80;;;8.30;99.90;;;;;;5100489;28;20051;-66
2022/01/03 04:58:09;;;;;;;19.90;4.65;;;8.30;99.90;;;;;;5114698;28;20482;-66
2022/01/03 05:00:34;;;;;;;24.85;5.88;;;8.30;99.90;;;;;;5096848;27;20054;-66
2022/01/03 05:03:00;;;;;;;34.40;5.68;;;8.30;99.90;;;;;;5099235;28;20047;-66
2022/01/03 05:05:26;;;;;;;28.10;5.57;;;8.30;99.90;;;;;;5106077;28;20051;-66
2022/01/03 05:07:51;;;;;;;25.05;5.13;;;8.30;99.90;;;;;;5092033;28;20150;-66
2022/01/03 05:10:17;;;;;;;31.73;4.95;;;8.30;99.90;;;;;;5092943;28;20044;-66
2022/01/03 05:12:42;;;;;;;26.08;4.78;;;8.40;99.90;;;;;;5093735;28;20079;-66
2022/01/03 05:15:08;;;;;;;29.52;6.03;;;8.30;99.90;;;;;;5092044;28;20406;-67
2022/01/03 05:17:34;;;;;;;33.78;6.28;;;8.30;99.90;;;;;;5098038;28;20036;-66
2022/01/03 05:19:59;;;;;;;27.90;5.78;;;8.30;99.90;;;;;;5099907;28;20059;-66
2022/01/03 05:22:25;;;;;;;36.53;6.10;;;8.30;99.90;;;;;;5092595;28;20044;-66
2022/01/03 05:24:51;;;;;;;30.17;5.78;;;8.30;99.90;;;;;;5109768;28;20063;-66
2022/01/03 05:27:17;;;;;;;32.45;6.15;;;8.40;99.90;;;;;;5109892;28;20051;-66
2022/01/03 05:29:42;;;;;;;36.28;5.78;;;8.40;99.90;;;;;;5100369;28;20075;-66
2022/01/03 05:32:08;;;;;;;30.73;5.50;;;8.30;99.90;;;;;;5113471;28;20042;-66
2022/01/03 05:34:34;;;;;;;24.42;4.50;;;8.30;99.90;;;;;;5091775;28;20044;-66
2022/01/03 05:36:59;;;;;;;29.52;6.05;;;8.30;99.90;;;;;;5092751;28;20475;-66
2022/01/03 05:39:25;;;;;;;33.15;6.80;;;8.30;99.90;;;;;;5112565;28;20209;-66
2022/01/03 05:41:51;;;;;;;33.55;5.45;;;8.30;99.90;;;;;;5112586;28;20066;-66
2022/01/03 05:44:16;;;;;;;29.83;6.28;;;8.30;99.90;;;;;;5112653;28;20089;-66
2022/01/03 05:46:42;;;;;;;46.97;7.07;;;8.40;99.90;;;;;;5113419;28;20494;-66
2022/01/03 05:49:08;;;;;;;32.58;6.00;;;8.30;99.90;;;;;;5111501;28;20814;-66
2022/01/03 05:51:34;;;;;;;43.13;6.75;;;8.40;99.90;;;;;;5111942;28;20035;-66
2022/01/03 05:54:00;;;;;;;27.58;5.82;;;8.40;99.90;;;;;;5113721;28;20040;-66
2022/01/03 05:56:25;;;;;;;29.65;5.97;;;8.40;99.90;;;;;;5110466;28;20046;-67
2022/01/03 05:58:51;;;;;;;31.98;7.30;;;8.40;99.90;;;;;;5099942;28;20056;-66
2022/01/03 06:01:21;;;;;;;40.22;6.82;;;8.40;99.90;;;;;;5097780;28;20541;-66
2022/01/03 06:03:46;;;;;;;38.67;6.88;;;8.40;99.90;;;;;;5109797;28;20070;-66
2022/01/03 06:08:37;;;;;;;34.35;6.47;;;8.30;99.90;;;;;;5111998;28;20052;-66
2022/01/03 06:11:04;;;;;;;23.70;5.65;;;8.40;99.90;;;;;;5111537;28;20035;-66
2022/01/03 06:13:30;;;;;;;34.33;6.00;;;8.30;99.90;;;;;;5111591;28;20051;-66
2022/01/03 06:15:56;;;;;;;17.88;5.18;;;8.40;99.90;;;;;;5107489;28;20048;-66
2022/01/03 06:18:22;;;;;;;24.42;5.82;;;8.30;99.90;;;;;;5101703;28;20055;-66
2022/01/03 06:20:49;;;;;;;33.50;6.05;;;8.30;99.90;;;;;;5102209;28;20401;-66
2022/01/03 06:23:17;;;;;;;38.58;5.50;;;8.20;99.90;;;;;;5095984;28;20107;-66
2022/01/03 06:25:43;;;;;;;35.67;5.90;;;8.30;99.90;;;;;;5091706;28;20044;-66
2022/01/03 06:28:10;;;;;;;22.48;6.15;;;8.30;99.90;;;;;;5098759;28;20564;-66
2022/01/03 06:30:37;;;;;;;25.73;5.80;;;8.30;99.90;;;;;;5092279;28;20044;-66
2022/01/03 06:33:03;;;;;;;24.63;5.40;;;8.30;99.90;;;;;;5108196;28;20036;-66
2022/01/03 06:35:29;;;;;;;32.75;6.82;;;8.40;99.90;;;;;;5101138;28;20127;-66
2022/01/03 06:37:55;;;;;;;34.50;6.65;;;8.30;99.90;;;;;;5106077;28;20044;-66
2022/01/03 06:40:21;;;;;;;28.45;6.07;;;8.30;99.90;;;;;;5093540;28;20052;-66
2022/01/03 06:42:47;;;;;;;32.75;5.50;;;8.30;99.90;;;;;;5104258;28;20062;-66
2022/01/03 06:45:12;;;;;;;34.00;6.28;;;8.30;99.90;;;;;;5098894;28;20044;-66
2022/01/03 06:47:38;;;;;;;30.65;5.75;;;8.20;99.90;;;;;;5089942;28;20548;-66
2022/01/03 06:50:06;;;;;;;37.65;5.10;;;8.20;99.90;;;;;;5093454;28;20136;-66
2022/01/03 06:52:32;;;;;;;25.48;6.00;;;8.30;99.90;;;;;;5111461;28;20050;-66
2022/01/03 06:54:58;;;;;;;38.05;6.68;;;8.30;99.90;;;;;;5112401;28;20055;-66
2022/01/03 06:57:23;;;;;;;38.80;7.03;;;8.30;99.90;;;;;;5106187;28;20139;-66
2022/01/03 06:59:49;;;;;;;34.22;6.47;;;8.20;99.90;;;;;;5094456;28;20047;-65
2022/01/03 07:02:14;;;;;;;39.50;6.80;;;8.30;99.90;;;;;;5103037;28;20490;-66
2022/01/03 07:04:40;;;;;;;22.77;5.55;;;8.20;99.90;;;;;;5090599;28;20044;-66
2022/01/03 07:07:05;;;;;;;32.85;6.85;;;8.20;99.90;;;;;;5103600;28;20047;-66
2022/01/03 07:09:34;;;;;;;27.85;6.32;;;8.30;99.90;;;;;;5092572;28;20468;-66
2022/01/03 07:12:00;;;;;;;25.00;6.47;;;8.10;99.90;;;;;;5095122;28;20052;-66
2022/01/03 07:19:40;;;;;;;23.55;4.72;;;8.20;99.90;;;;;;5109455;28;20043;-66
2022/01/03 07:22:08;;;;;;;28.13;5.82;;;8.20;99.90;;;;;;5111255;28;20047;-66
2022/01/03 07:24:35;;;;;;;33.63;5.53;;;8.20;99.90;;;;;;5107803;28;20426;-66
2022/01/03 07:27:06;;;;;;;20.90;4.43;;;8.20;99.90;;;;;;5089196;28;20092;-66
2022/01/03 07:29:32;;;;;;;32.83;4.90;;;8.20;99.90;;;;;;5090833;28;20052;-66
2022/01/03 07:31:58;;;;;;;36.22;6.53;;;8.30;99.90;;;;;;5105589;28;20036;-66
2022/01/03 07:34:24;;;;;;;28.48;7.05;;;8.20;99.90;;;;;;5110964;28;20043;-66
2022/01/03 07:36:50;;;;;;;27.50;5.63;;;8.30;99.90;;;;;;5098409;28;20079;-66
2022/01/03 07:39:16;;;;;;;33.55;5.38;;;8.20;99.90;;;;;;5098446;28;20090;-66
2022/01/03 07:41:41;;;;;;;31.45;5.80;;;8.30;99.90;;;;;;5091847;28;20102;-66
2022/01/03 07:44:07;;;;;;;36.55;6.18;;;8.30;99.90;;;;;;5091275;28;20043;-66
2022/01/03 07:46:32;;;;;;;28.38;5.85;;;8.30;99.90;;;;;;5090804;28;20047;-66
2022/01/03 07:48:58;;;;;;;31.08;5.47;;;8.30;99.90;;;;;;5090909;28;20055;-66
2022/01/03 07:51:26;;;;;;;30.48;7.03;;;8.30;99.90;;;;;;5095095;28;20054;-66
2022/01/03 07:53:55;;;;;;;29.33;6.03;;;8.30;99.90;;;;;;5096080;28;20047;-66
2022/01/03 07:56:20;;;;;;;27.10;5.85;;;8.40;99.90;;;;;;5097520;28;20051;-66
2022/01/03 07:58:47;;;;;;;28.25;6.68;;;8.40;99.90;;;;;;5089627;28;20060;-66
2022/01/03 08:01:18;;;;;;;38.88;7.75;;;8.40;99.90;;;;;;5094955;28;20067;-66
2022/01/03 08:03:47;;;;;;;41.53;7.63;;;8.40;99.90;;;;;;5116810;28;20044;-66
2022/01/03 08:06:12;;;;;;;30.48;6.35;;;8.50;99.90;;;;;;5096698;28;20308;-66
2022/01/03 08:08:38;;;;;;;28.50;5.10;;;8.50;99.90;;;;;;5109544;28;20043;-66
2022/01/03 08:11:04;;;;;;;30.83;5.95;;;8.50;99.90;;;;;;5109511;28;20052;-66
2022/01/03 08:13:30;;;;;;;29.48;5.38;;;8.50;99.90;;;;;;5109729;28;20390;-66
2022/01/03 08:15:56;;;;;;;24.08;4.88;;;8.50;99.90;;;;;;5110002;28;20055;-66
2022/01/03 08:18:21;;;;;;;30.23;6.50;;;8.50;99.90;;;;;;5091021;28;20055;-65
2022/01/03 08:20:47;;;;;;;39.22;6.25;;;8.50;99.90;;;;;;5101545;28;20569;-66
2022/01/03 08:23:12;;;;;;;30.38;6.53;;;8.50;99.90;;;;;;5085132;28;20059;-66
2022/01/03 08:25:38;;;;;;;43.97;7.22;;;8.60;99.90;;;;;;5088523;28;20081;-66
2022/01/03 08:28:08;;;;;;;38.90;7.00;;;8.60;99.90;;;;;;5090640;28;20514;-66
2022/01/03 08:30:34;;;;;;;37.28;5.50;;;8.60;99.90;;;;;;5090341;28;20092;-66
2022/01/03 08:33:00;;;;;;;24.35;5.72;;;8.60;99.90;;;;;;5094436;28;20055;-66
2022/01/03 08:35:26;;;;;;;25.90;5.85;;;8.60;99.90;;;;;;5101858;28;20051;-66
2022/01/03 08:37:52;;;;;;;32.75;7.05;;;8.60;99.90;;;;;;5088441;28;20375;-66
2022/01/03 08:40:18;;;;;;;25.55;6.93;;;8.70;99.90;;;;;;5107219;28;20051;-66
2022/01/03 08:42:44;;;;;;;38.25;6.65;;;8.80;99.90;;;;;;5108706;28;20405;-66
2022/01/03 08:45:10;;;;;;;36.10;5.35;;;8.80;99.90;;;;;;5097543;28;20040;-66
2022/01/03 08:47:36;;;;;;;32.08;5.47;;;8.90;99.90;;;;;;5090896;28;20048;-66
2022/01/03 08:50:03;;;;;;;28.73;5.93;;;8.80;99.90;;;;;;5110879;28;20411;-66
2022/01/03 08:52:29;;;;;;;31.55;6.35;;;8.90;99.90;;;;;;5108309;28;20093;-66
2022/01/03 08:54:55;;;;;;;35.42;6.70;;;8.90;99.90;;;;;;5109687;28;20082;-67
2022/01/03 08:57:21;;;;;;;26.52;5.32;;;9.00;99.90;;;;;;5110762;28;20067;-66
2022/01/03 08:59:48;;;;;;;38.45;6.82;;;8.90;99.90;;;;;;5104849;28;20052;-66
2022/01/03 09:02:16;;;;;;;18.98;7.10;;;9.00;99.90;;;;;;5094474;28;20040;-66
2022/01/03 09:04:42;;;;;;;31.10;6.85;;;9.00;99.90;;;;;;5091078;28;20051;-66
2022/01/03 09:07:08;;;;;;;35.92;7.55;;;9.00;99.90;;;;;;5098123;28;20047;-69
2022/01/03 09:09:34;;;;;;;30.90;6.22;;;9.20;99.90;;;;;;5090210;28;20075;-70
2022/01/03 09:12:01;;;;;;;36.17;5.75;;;9.00;99.90;;;;;;5104461;28;20060;-69
2022/01/03 09:14:26;;;;;;;30.63;5.65;;;9.00;99.90;;;;;;5091530;28;20083;-69
2022/01/03 09:16:53;;;;;;;32.95;6.07;;;9.00;99.90;;;;;;5092212;28;20552;-68
2022/01/03 09:19:19;;;;;;;34.28;6.97;;;9.00;99.90;;;;;;5092175;28;20048;-68
2022/01/03 09:21:44;;;;;;;27.27;5.35;;;9.00;99.90;;;;;;5090948;28;20407;-69
2022/01/03 09:24:27;;;;;;;30.30;5.38;;;9.00;99.90;;;;;;5093658;28;20051;-68
2022/01/03 09:29:40;;;;;;;31.27;6.35;;;9.00;99.90;;;;;;5091716;28;20130;-67
2022/01/03 09:32:07;;;;;;;34.97;5.88;;;9.00;99.90;;;;;;5099339;28;20059;-68
2022/01/03 09:34:33;;;;;;;29.02;5.72;;;9.00;99.90;;;;;;5092727;28;20067;-68
2022/01/03 09:37:00;;;;;;;27.67;6.22;;;9.00;99.90;;;;;;5094156;28;20105;-68
2022/01/03 09:39:26;;;;;;;28.10;5.90;;;9.00;99.90;;;;;;5107310;28;20062;-67
2022/01/03 09:42:08;;;;;;;36.05;7.95;;;9.00;99.90;;;;;;5091022;28;20478;-68
2022/01/03 09:44:34;;;;;;;31.45;6.72;;;9.00;99.90;;;;;;5092466;28;20498;-68
2022/01/03 09:47:03;;;;;;;27.70;6.97;;;9.00;99.90;;;;;;5093497;28;20067;-69
2022/01/03 09:49:35;;;;;;;24.67;6.13;;;9.00;99.90;;;;;;5091738;28;20058;-69
2022/01/03 09:52:03;;;;;;;29.17;6.05;;;9.10;99.90;;;;;;5092506;28;20479;-68
2022/01/03 09:54:29;;;;;;;31.33;6.38;;;9.10;99.90;;;;;;5092854;28;20059;-69
2022/01/03 09:56:58;;;;;;;25.73;5.55;;;9.10;99.90;;;;;;5112573;28;20108;-69
2022/01/03 09:59:25;;;;;;;30.02;6.32;;;9.10;99.90;;;;;;5114536;28;20055;-69
2022/01/03 10:01:52;;;;;;;21.48;5.25;;;9.10;99.90;;;;;;5085240;28;20052;-69
2022/01/03 10:04:18;;;;;;;30.10;6.35;;;9.40;99.90;;;;;;5096944;28;20054;-69
2022/01/03 10:06:45;;;;;;;28.70;5.93;;;9.20;99.90;;;;;;5082227;28;20037;-69
2022/01/03 10:09:10;;;;;;;27.58;5.18;;;9.30;99.90;;;;;;5071740;28;20402;-68
2022/01/03 10:11:37;;;;;;;29.35;5.22;;;9.30;99.90;;;;;;5074410;28;20048;-68
2022/01/03 10:14:03;;;;;;;30.95;6.30;;;9.30;99.90;;;;;;5082690;28;20063;-68
2022/01/03 10:16:29;;;;;;;30.30;5.80;;;9.40;99.90;;;;;;5083341;28;20449;-69
2022/01/03 10:18:55;;;;;;;29.90;5.90;;;9.40;99.90;;;;;;5072107;28;20394;-68
2022/01/03 10:21:45;;;;;;;31.00;5.80;;;9.50;99.90;;;;;;5089320;28;20159;-69
2022/01/03 10:24:13;;;;;;;29.15;6.05;;;9.40;99.90;;;;;;5096920;27;20052;-70
2022/01/03 10:26:39;;;;;;;31.75;6.97;;;9.40;99.90;;;;;;5071798;28;20049;-69
2022/01/03 10:29:26;;;;;;;24.95;5.07;;;9.50;99.90;;;;;;5079128;28;20055;-69
2022/01/03 10:31:58;;;;;;;38.35;6.55;;;9.50;99.90;;;;;;5091051;28;20105;-67
2022/01/03 10:34:24;;;;;;;26.50;4.57;;;9.50;99.90;;;;;;5083691;28;20054;-67
2022/01/03 10:36:51;;;;;;;33.60;6.32;;;9.50;99.90;;;;;;5082049;28;20486;-67
2022/01/03 10:39:22;;;;;;;21.33;4.82;;;9.60;99.90;;;;;;5109569;28;20142;-66
2022/01/03 10:41:50;;;;;;;34.30;7.05;;;9.60;99.90;;;;;;5099490;28;20048;-67
2022/01/03 10:44:40;;;;;;;27.00;6.10;;;9.60;99.90;;;;;;5091000;28;20049;-67
2022/01/03 10:47:08;;;;;;;31.83;6.68;;;9.70;99.90;;;;;;5091496;28;20044;-66
2022/01/03 10:49:36;;;;;;;30.20;6.85;;;9.70;99.90;;;;;;5097129;28;20075;-67
2022/01/03 10:52:22;;;;;;;24.77;5.75;;;9.70;99.90;;;;;;5097138;28;20044;-66
2022/01/03 10:55:15;;;;;;;34.05;6.45;;;9.80;99.90;;;;;;5090129;28;20040;-66
2022/01/03 10:57:48;;;;;;;28.15;5.47;;;9.80;99.90;;;;;;5084527;28;20063;-66
2022/01/03 11:00:36;;;;;;;24.05;4.75;;;9.80;99.90;;;;;;5093467;28;20048;-66
2022/01/03 11:05:47;;;;;;;28.23;6.10;;;9.80;99.90;;;;;;5093003;28;20490;-68
2022/01/03 11:11:31;;;;;;;23.65;5.10;;;9.80;99.90;;;;;;5069404;28;20052;-66
2022/01/03 11:13:57;;;;;;;21.08;5.30;;;9.80;99.90;;;;;;5107873;28;20081;-66
2022/01/03 11:16:31;;;;;;;30.17;6.07;;;9.80;99.90;;;;;;5103813;28;20056;-67
2022/01/03 11:18:56;;;;;;;17.60;4.30;;;9.80;99.90;;;;;;5111301;28;20055;-66
2022/01/03 11:21:24;;;;;;;28.85;6.13;;;9.80;99.90;;;;;;5089451;28;20390;-67
2022/01/03 11:24:13;;;;;;;29.23;6.78;;;9.80;99.90;;;;;;5098040;28;20043;-66
2022/01/03 11:26:46;;;;;;;26.27;5.13;;;9.70;99.90;;;;;;5093826;28;20128;-67
2022/01/03 11:29:13;;;;;;;25.92;5.82;;;9.70;99.90;;;;;;5100364;28;20113;-66
2022/01/03 11:31:39;;;;;;;26.17;6.15;;;9.80;99.90;;;;;;5106168;28;20385;-66
2022/01/03 11:34:10;;;;;;;33.15;5.60;;;9.80;99.90;;;;;;5108388;28;20119;-67
2022/01/03 11:36:38;;;;;;;25.75;5.18;;;9.80;99.90;;;;;;5090478;28;20056;-67
2022/01/03 11:39:11;;;;;;;22.40;5.50;;;9.90;99.90;;;;;;5094886;28;20044;-67
2022/01/03 11:41:41;;;;;;;22.98;4.82;;;9.90;99.90;;;;;;5110473;28;20081;-66
2022/01/03 11:44:10;;;;;;;30.48;5.20;;;10.00;99.90;;;;;;5105861;28;20070;-67
2022/01/03 11:46:36;;;;;;;20.10;4.18;;;10.00;99.90;;;;;;5091727;28;20119;-66
2022/01/03 11:49:02;;;;;;;21.42;5.10;;;10.00;99.90;;;;;;5088951;28;20123;-67
2022/01/03 11:51:30;;;;;;;23.80;5.63;;;10.10;99.90;;;;;;5089979;28;20383;-66
2022/01/03 11:53:57;;;;;;;27.77;6.18;;;10.10;99.90;;;;;;5090201;28;20032;-67
2022/01/03 11:56:25;;;;;;;25.38;5.53;;;10.10;99.90;;;;;;5089486;28;20051;-67
2022/01/03 12:04:41;;;;;;;27.17;4.97;;;10.20;99.90;;;;;;5088820;28;20459;-67
2022/01/03 12:07:08;;;;;;;31.13;6.47;;;10.10;99.90;;;;;;5104456;28;20062;-66
2022/01/03 12:09:37;;;;;;;34.13;6.25;;;10.20;99.90;;;;;;5109926;28;20047;-66
2022/01/03 12:12:05;;;;;;;24.25;5.05;;;10.10;99.90;;;;;;5107719;28;20482;-66
2022/01/03 12:14:43;;;;;;;26.95;5.45;;;10.10;99.90;;;;;;5091314;28;20123;-67
2022/01/03 12:17:10;;;;;;;22.92;4.53;;;10.10;99.90;;;;;;5109798;28;20040;-67
2022/01/03 12:19:37;;;;;;;27.75;5.45;;;10.00;99.90;;;;;;5108125;28;20104;-67
2022/01/03 12:22:09;;;;;;;32.25;5.45;;;10.00;99.90;;;;;;5099375;28;20055;-67
2022/01/03 12:24:40;;;;;;;24.65;4.53;;;10.00;99.90;;;;;;5095200;28;20048;-67
2022/01/03 12:27:16;;;;;;;24.05;5.65;;;9.90;99.90;;;;;;5098511;28;20134;-67
2022/01/03 12:29:54;;;;;;;19.55;4.97;;;9.90;99.90;;;;;;5094398;28;20507;-66
2022/01/03 12:32:20;;;;;;;29.50;4.80;;;9.90;99.90;;;;;;5092951;28;20128;-66
2022/01/03 12:35:06;;;;;;;23.40;5.15;;;9.90;99.90;;;;;;5094604;28;20082;-67
2022/01/03 12:37:32;;;;;;;27.80;5.47;;;10.00;99.90;;;;;;5109711;28;20089;-66
2022/01/03 12:40:10;;;;;;;27.60;6.07;;;10.00;99.90;;;;;;5097926;28;20044;-67
2022/01/03 12:42:54;;;;;;;19.45;3.80;;;10.10;99.90;;;;;;5091547;28;20039;-66
2022/01/03 12:45:35;;;;;;;32.67;5.95;;;10.10;99.90;;;;;;5100149;28;20100;-67
2022/01/03 12:48:09;;;;;;;26.70;5.25;;;10.00;99.90;;;;;;5094986;28;20557;-67
2022/01/03 12:51:03;;;;;;;22.55;3.95;;;10.10;99.90;;;;;;5093445;28;20050;-67
2022/01/03 12:53:29;;;;;;;28.70;5.50;;;10.10;99.90;;;;;;5097649;28;20051;-67
2022/01/03 12:55:56;;;;;;;25.75;5.22;;;10.10;99.90;;;;;;5114293;28;20051;-67
2022/01/03 12:58:21;;;;;;;25.33;5.43;;;10.10;99.90;;;;;;5105248;28;20052;-67
2022/01/03 13:00:51;;;;;;;26.08;4.93;;;10.10;99.90;;;;;;5095005;28;20105;-67
2022/01/03 13:03:54;;;;;;;16.92;4.95;;;10.10;99.90;;;;;;5093644;28;20048;-67
2022/01/03 13:06:30;;;;;;;24.38;4.22;;;10.10;99.90;;;;;;5094269;28;20070;-67
2022/01/03 13:08:55;;;;;;;25.38;4.72;;;10.10;99.90;;;;;;5093903;28;20047;-67
2022/01/03 13:11:27;;;;;;;37.10;5.93;;;10.20;99.90;;;;;;5109261;28;20063;-67
2022/01/03 13:14:00;;;;;;;24.05;4.63;;;10.10;99.90;;;;;;5112934;28;20047;-67
2022/01/03 13:16:35;;;;;;;21.73;5.05;;;10.10;99.90;;;;;;5114180;28;20060;-67